createdAt,value
2018-01-17T00:01:26.597Z,5.5
2018-01-17T00:11:27.745Z,6.0
2018-01-17T00:21:26.732Z,5.0
2018-01-17T00:31:27.093Z,4.3
2018-01-17T00:41:27.043Z,4.5
2018-01-17T00:51:26.814Z,4.3
2018-01-17T01:01:25.929Z,6.6
2018-01-17T01:11:29.131Z,6.9
2018-01-17T01:21:26.002Z,6.5
2018-01-17T01:31:27.862Z,6.4
2018-01-17T01:41:26.645Z,7.0
2018-01-17T01:51:28.308Z,6.3
2018-01-17T02:01:26.677Z,6.1
2018-01-17T02:11:26.339Z,5.7
2018-01-17T02:21:27.583Z,5.5
2018-01-17T02:31:25.774Z,7.3
2018-01-17T02:41:29.428Z,6.9
2018-01-17T02:51:28.091Z,7.6
2018-01-17T03:01:27.822Z,8.0
2018-01-17T03:11:27.427Z,7.8
2018-01-17T03:21:25.706Z,8.0
2018-01-17T03:31:25.991Z,8.0
2018-01-17T03:41:26.754Z,7.8
2018-01-17T03:51:26.098Z,7.6
2018-01-17T04:01:26.691Z,7.7
2018-01-17T04:11:26.045Z,8.1
2018-01-17T04:21:26.454Z,8.4
2018-01-17T04:31:25.804Z,7.3
2018-01-17T04:41:26.467Z,8.1
2018-01-17T04:51:25.662Z,8.1
2018-01-17T05:01:28.310Z,8.5
2018-01-17T05:11:27.381Z,7.7
2018-01-17T05:21:26.308Z,7.9
2018-01-17T05:31:26.281Z,9.4
2018-01-17T05:41:25.389Z,7.8
2018-01-17T05:51:25.466Z,9.1
2018-01-17T06:01:26.510Z,7.8
2018-01-17T06:11:25.598Z,7.7
2018-01-17T06:21:27.356Z,6.7
2018-01-17T06:31:25.531Z,6.6
2018-01-17T06:41:26.000Z,7.2
2018-01-17T06:51:26.647Z,8.3
2018-01-17T07:01:27.271Z,6.9
2018-01-17T07:11:27.304Z,8.5
2018-01-17T07:21:27.584Z,8.3
2018-01-17T07:31:25.659Z,8.4
2018-01-17T07:41:27.554Z,7.1
2018-01-17T07:51:27.716Z,6.9
2018-01-17T08:01:26.185Z,8.0
2018-01-17T08:11:26.551Z,8.3
2018-01-17T08:21:25.840Z,7.2
2018-01-17T08:31:25.959Z,6.6
2018-01-17T08:41:26.932Z,8.0
2018-01-17T08:51:26.879Z,7.5
2018-01-17T09:01:26.342Z,8.3
2018-01-17T09:11:27.543Z,8.6
2018-01-17T09:21:26.542Z,9.1
2018-01-17T09:31:26.311Z,7.5
2018-01-17T09:41:25.726Z,8.2
2018-01-17T09:51:27.646Z,8.7
2018-01-17T10:01:25.852Z,6.7
2018-01-17T10:11:26.066Z,8.9
2018-01-17T10:21:25.381Z,8.2
2018-01-17T10:31:27.032Z,7.5
2018-01-17T10:41:26.251Z,7.0
2018-01-17T10:51:26.411Z,8.2
2018-01-17T11:01:27.576Z,8.2
2018-01-17T11:11:26.424Z,7.3
2018-01-17T11:21:26.031Z,7.3
2018-01-17T11:31:26.185Z,7.3
2018-01-17T11:41:26.745Z,8.1
2018-01-17T11:51:26.199Z,6.4
2018-01-17T12:01:26.697Z,5.4
2018-01-17T12:11:28.438Z,5.8
2018-01-17T12:21:25.884Z,6.2
2018-01-17T12:31:26.269Z,5.5
2018-01-17T12:41:26.831Z,7.8
2018-01-17T12:51:27.637Z,8.0
2018-01-17T13:01:25.865Z,6.6
2018-01-17T13:11:25.972Z,7.6
2018-01-17T13:21:27.013Z,7.2
2018-01-17T13:31:27.345Z,7.9
2018-01-17T13:41:26.294Z,8.0
2018-01-17T13:51:25.428Z,8.0
2018-01-17T14:01:25.937Z,11.4
2018-01-17T14:11:26.500Z,13.0
2018-01-17T14:21:26.380Z,8.2
2018-01-17T14:31:25.959Z,7.6
2018-01-17T14:41:26.577Z,9.1
2018-01-17T14:51:25.951Z,9.8
2018-01-17T15:01:27.262Z,12.3
2018-01-17T15:11:26.568Z,12.8
2018-01-17T15:21:29.170Z,12.7
2018-01-17T15:31:29.058Z,12.3
2018-01-17T15:41:28.535Z,11.5
2018-01-17T15:51:25.978Z,11.6
2018-01-17T16:01:29.074Z,12.6
2018-01-17T16:11:26.952Z,16.3
2018-01-17T16:21:26.734Z,14.7
2018-01-17T16:31:25.940Z,16.7
2018-01-17T16:41:26.695Z,15.5
2018-01-17T16:51:27.289Z,16.6
2018-01-17T17:01:25.495Z,18.3
2018-01-17T17:11:26.506Z,18.6
2018-01-17T17:21:27.697Z,18.5
2018-01-17T17:31:25.974Z,22.9
2018-01-17T17:41:26.418Z,19.0
2018-01-17T17:51:26.172Z,10.4
2018-01-17T18:01:26.366Z,10.6
2018-01-17T18:11:25.847Z,8.6
2018-01-17T18:21:27.771Z,9.1
2018-01-17T18:31:26.060Z,8.6
2018-01-17T18:41:26.312Z,14.0
2018-01-17T18:51:26.909Z,12.6
2018-01-17T19:01:26.435Z,10.1
2018-01-17T19:11:28.109Z,10.5
2018-01-17T19:21:31.053Z,13.7
2018-01-17T19:31:26.879Z,13.8
2018-01-17T19:41:26.130Z,11.1
2018-01-17T19:51:25.690Z,9.9
2018-01-17T20:01:25.935Z,13.0
2018-01-17T20:11:26.484Z,15.0
2018-01-17T20:21:25.987Z,16.3
2018-01-17T20:31:31.735Z,15.6
2018-01-17T20:41:28.982Z,17.8
2018-01-17T20:51:27.976Z,19.5
2018-01-17T21:01:27.277Z,23.7
2018-01-17T21:11:25.465Z,19.7
2018-01-17T21:21:25.930Z,21.1
2018-01-17T21:31:26.512Z,14.9
2018-01-17T21:41:25.977Z,16.7
2018-01-17T21:51:28.237Z,14.6
2018-01-17T22:01:31.859Z,17.7
2018-01-17T22:11:26.051Z,17.7
2018-01-17T22:21:27.482Z,25.6
2018-01-17T22:31:26.592Z,18.8
2018-01-17T22:41:25.846Z,24.8
2018-01-17T22:51:26.619Z,28.0
2018-01-17T23:01:26.700Z,23.1
2018-01-17T23:11:27.672Z,19.3
2018-01-17T23:21:26.147Z,21.8
2018-01-17T23:31:26.394Z,21.9
2018-01-17T23:41:25.968Z,23.5
2018-01-17T23:51:26.308Z,21.1
